createdAt,value
2019-06-01T00:00:46.382Z,20.36
2019-06-01T00:03:21.202Z,20.49
2019-06-01T00:05:52.982Z,20.47
2019-06-01T00:08:25.316Z,20.30
2019-06-01T00:10:57.059Z,20.21
2019-06-01T00:13:30.503Z,20.01
2019-06-01T00:16:02.516Z,19.94
2019-06-01T00:18:35.558Z,19.79
2019-06-01T00:21:07.317Z,19.72
2019-06-01T00:23:40.295Z,19.60
2019-06-01T00:26:13.299Z,19.46
2019-06-01T00:28:45.797Z,19.35
2019-06-01T00:31:20.595Z,19.25
2019-06-01T00:33:52.372Z,19.16
2019-06-01T00:36:24.087Z,19.19
2019-06-01T00:38:55.826Z,19.17
2019-06-01T00:41:29.469Z,19.25
2019-06-01T00:44:03.095Z,19.18
2019-06-01T00:46:35.733Z,19.18
2019-06-01T00:49:07.507Z,19.11
2019-06-01T00:51:39.244Z,19.06
2019-06-01T00:54:12.655Z,18.95
2019-06-01T00:56:45.583Z,18.94
2019-06-01T00:59:19.206Z,18.85
2019-06-01T01:01:52.378Z,18.77
2019-06-01T01:04:24.506Z,18.85
2019-06-01T01:06:58.232Z,18.88
2019-06-01T01:09:31.592Z,18.75
2019-06-01T01:12:03.404Z,18.61
2019-06-01T01:14:36.131Z,18.50
2019-06-01T01:17:07.917Z,18.38
2019-06-01T01:19:39.659Z,18.45
2019-06-01T01:22:11.394Z,18.59
2019-06-01T01:24:43.093Z,18.63
2019-06-01T01:27:15.905Z,18.63
2019-06-01T01:29:48.883Z,18.61
2019-06-01T01:32:20.860Z,18.53
2019-06-01T01:34:54.222Z,18.30
2019-06-01T01:37:25.972Z,18.15
2019-06-01T01:39:58.558Z,18.16
2019-06-01T01:42:30.944Z,18.08
2019-06-01T01:45:02.818Z,18.04
2019-06-01T01:47:34.893Z,18.08
2019-06-01T01:50:08.267Z,18.26
2019-06-01T01:52:40.030Z,18.28
2019-06-01T01:55:12.278Z,18.19
2019-06-01T01:57:44.072Z,18.23
2019-06-01T02:00:18.482Z,18.33
2019-06-01T02:02:51.756Z,18.39
2019-06-01T02:05:23.776Z,18.43
2019-06-01T02:07:57.189Z,18.44
2019-06-01T02:10:30.212Z,18.32
2019-06-01T02:13:03.886Z,18.16
2019-06-01T02:15:36.102Z,17.94
2019-06-01T02:18:09.156Z,17.95
2019-06-01T02:20:41.023Z,17.94
2019-06-01T02:23:14.425Z,17.88
2019-06-01T02:25:46.183Z,17.93
2019-06-01T02:28:17.931Z,17.91
2019-06-01T02:30:49.981Z,17.95
2019-06-01T02:33:21.790Z,18.04
2019-06-01T02:35:54.341Z,18.03
2019-06-01T02:38:26.798Z,17.92
2019-06-01T02:41:01.041Z,18.01
2019-06-01T02:43:32.991Z,18.00
2019-06-01T02:46:07.172Z,17.92
2019-06-01T02:48:38.161Z,17.85
2019-06-01T02:51:11.801Z,17.66
2019-06-01T02:53:45.412Z,17.64
2019-06-01T02:56:18.887Z,17.64
2019-06-01T02:58:51.988Z,17.53
2019-06-01T03:01:32.891Z,17.44
2019-06-01T03:04:08.990Z,17.40
2019-06-01T03:06:43.115Z,17.28
2019-06-01T03:09:14.843Z,17.13
2019-06-01T03:11:46.758Z,16.99
2019-06-01T03:14:18.568Z,17.13
2019-06-01T03:16:51.910Z,17.09
2019-06-01T03:19:25.344Z,16.99
2019-06-01T03:22:03.755Z,16.95
2019-06-01T03:24:43.117Z,16.90
2019-06-01T03:27:16.523Z,16.84
2019-06-01T03:29:57.316Z,16.83
2019-06-01T03:32:36.839Z,16.77
2019-06-01T03:35:04.636Z,16.76
2019-06-01T03:37:36.548Z,16.81
2019-06-01T03:40:19.731Z,16.94
2019-06-01T03:42:44.946Z,16.89
2019-06-01T03:45:16.709Z,16.80
2019-06-01T03:47:51.395Z,16.92
2019-06-01T03:50:23.136Z,16.95
2019-06-01T03:52:55.726Z,16.84
2019-06-01T03:55:27.781Z,16.78
2019-06-01T03:58:01.352Z,16.75
2019-06-01T04:00:33.104Z,16.74
2019-06-01T04:03:07.190Z,16.69
2019-06-01T04:05:39.051Z,16.77
2019-06-01T04:08:11.711Z,16.61
2019-06-01T04:10:43.464Z,16.59
2019-06-01T04:13:16.884Z,16.60
2019-06-01T04:15:48.750Z,16.58
2019-06-01T04:18:20.732Z,16.45
2019-06-01T04:20:52.484Z,16.37
2019-06-01T04:23:24.446Z,16.38
2019-06-01T04:25:58.133Z,16.56
2019-06-01T04:28:34.440Z,16.55
2019-06-01T04:31:06.557Z,16.59
2019-06-01T04:33:38.448Z,16.50
2019-06-01T04:36:13.094Z,16.43
2019-06-01T04:38:44.964Z,16.44
2019-06-01T04:41:18.369Z,16.50
2019-06-01T04:43:51.753Z,16.43
2019-06-01T04:46:23.516Z,16.37
2019-06-01T04:48:55.333Z,16.33
2019-06-01T04:51:27.140Z,16.35
2019-06-01T04:54:00.497Z,16.26
2019-06-01T04:56:32.237Z,16.17
2019-06-01T04:59:04.905Z,16.12
2019-06-01T05:01:38.316Z,16.09
2019-06-01T05:04:11.176Z,16.10
2019-06-01T05:06:43.102Z,16.11
2019-06-01T05:09:16.768Z,16.00
2019-06-01T05:11:48.503Z,16.05
2019-06-01T05:14:22.893Z,16.12
2019-06-01T05:16:54.701Z,16.06
2019-06-01T05:19:30.282Z,16.01
2019-06-01T05:22:02.054Z,15.99
2019-06-01T05:24:33.841Z,15.88
2019-06-01T05:27:09.015Z,15.86
2019-06-01T05:29:40.907Z,15.98
2019-06-01T05:32:14.656Z,16.11
2019-06-01T05:34:46.610Z,16.24
2019-06-01T05:37:20.012Z,16.40
2019-06-01T05:39:53.096Z,16.49
2019-06-01T05:42:24.798Z,16.52
2019-06-01T05:44:58.204Z,16.53
2019-06-01T05:47:30.346Z,16.66
2019-06-01T05:50:04.174Z,17.00
2019-06-01T05:52:37.570Z,17.83
2019-06-01T05:55:10.355Z,18.79
2019-06-01T05:57:42.143Z,19.66
2019-06-01T06:00:15.051Z,20.38
2019-06-01T06:02:48.123Z,20.80
2019-06-01T06:05:22.829Z,20.98
2019-06-01T06:07:58.019Z,21.49
2019-06-01T06:10:33.418Z,22.09
2019-06-01T06:13:08.523Z,22.27
2019-06-01T06:15:40.305Z,22.51
2019-06-01T06:18:12.088Z,22.92
2019-06-01T06:20:43.887Z,22.58
2019-06-01T06:23:16.449Z,23.37
2019-06-01T06:25:49.668Z,23.71
2019-06-01T06:28:23.241Z,24.25
2019-06-01T06:30:57.911Z,24.69
2019-06-01T06:33:29.858Z,25.09
2019-06-01T06:36:03.298Z,24.98
2019-06-01T06:38:35.175Z,25.10
2019-06-01T06:41:06.899Z,25.79
2019-06-01T06:43:38.694Z,26.30
2019-06-01T06:46:10.411Z,25.87
2019-06-01T06:48:46.322Z,26.32
2019-06-01T06:51:19.246Z,26.29
2019-06-01T06:53:54.119Z,27.11
2019-06-01T06:56:26.229Z,27.88
2019-06-01T06:59:00.006Z,27.66
2019-06-01T07:01:31.737Z,28.15
2019-06-01T07:04:12.850Z,28.29
2019-06-01T07:06:40.001Z,28.93
2019-06-01T07:09:13.821Z,29.11
2019-06-01T07:11:47.401Z,29.40
2019-06-01T07:14:19.364Z,29.28
2019-06-01T07:16:51.924Z,29.63
2019-06-01T07:19:25.834Z,28.79
2019-06-01T07:22:00.821Z,30.15
2019-06-01T07:24:32.612Z,31.01
2019-06-01T07:27:04.366Z,31.51
2019-06-01T07:29:37.105Z,31.55
2019-06-01T07:32:09.063Z,31.51
2019-06-01T07:34:43.101Z,30.81
2019-06-01T07:37:15.577Z,31.77
2019-06-01T07:39:48.673Z,31.65
2019-06-01T07:42:23.501Z,31.94
2019-06-01T07:44:53.967Z,32.55
2019-06-01T07:47:27.214Z,32.52
2019-06-01T07:49:59.804Z,31.34
2019-06-01T07:52:32.416Z,32.75
2019-06-01T07:55:04.444Z,33.21
2019-06-01T07:57:36.198Z,33.35
2019-06-01T08:00:08.762Z,34.16
2019-06-01T08:02:40.544Z,33.49
2019-06-01T08:05:12.435Z,34.25
2019-06-01T08:07:46.680Z,34.19
2019-06-01T08:10:19.709Z,34.44
2019-06-01T08:12:52.517Z,34.45
2019-06-01T08:15:25.799Z,34.65
2019-06-01T08:17:57.731Z,34.78
2019-06-01T08:20:30.353Z,34.18
2019-06-01T08:23:02.169Z,34.36
2019-06-01T08:25:35.752Z,34.51
2019-06-01T08:28:07.651Z,34.79
2019-06-01T08:30:43.979Z,34.65
2019-06-01T08:33:15.831Z,34.58
2019-06-01T08:35:49.650Z,35.05
2019-06-01T08:38:21.534Z,35.87
2019-06-01T08:40:54.976Z,34.64
2019-06-01T08:43:27.660Z,35.12
2019-06-01T08:45:59.406Z,33.49
2019-06-01T08:48:33.951Z,34.43
2019-06-01T08:51:06.507Z,35.76
2019-06-01T08:53:38.396Z,35.87
2019-06-01T08:56:10.226Z,36.69
2019-06-01T08:58:41.960Z,36.58
2019-06-01T09:01:13.743Z,36.94
2019-06-01T09:03:47.570Z,36.51
2019-06-01T09:06:19.298Z,36.68
2019-06-01T09:08:51.075Z,35.79
2019-06-01T09:11:27.033Z,36.98
2019-06-01T09:14:00.297Z,37.70
2019-06-01T09:16:36.994Z,39.07
2019-06-01T09:19:11.354Z,38.90
2019-06-01T09:21:42.234Z,36.73
2019-06-01T09:24:14.273Z,36.98
2019-06-01T09:26:47.796Z,36.96
2019-06-01T09:29:19.841Z,37.88
2019-06-01T09:31:51.991Z,38.09
2019-06-01T09:34:23.816Z,38.48
2019-06-01T09:36:55.954Z,38.35
2019-06-01T09:39:29.450Z,38.79
2019-06-01T09:42:01.378Z,39.40
2019-06-01T09:44:33.588Z,38.34
2019-06-01T09:47:05.544Z,39.45
2019-06-01T09:49:38.072Z,38.47
2019-06-01T09:52:20.462Z,39.83
2019-06-01T09:57:47.445Z,38.21
2019-06-01T10:00:23.365Z,38.69
2019-06-01T10:02:55.618Z,38.55
2019-06-01T10:09:20.839Z,39.93
2019-06-01T10:11:59.093Z,41.17
2019-06-01T10:14:34.829Z,40.92
2019-06-01T10:17:07.994Z,41.13
2019-06-01T10:19:39.830Z,40.01
2019-06-01T10:22:13.617Z,41.74
2019-06-01T10:24:45.395Z,42.48
2019-06-01T10:27:17.134Z,42.63
2019-06-01T10:29:52.815Z,42.79
2019-06-01T10:32:24.699Z,42.84
2019-06-01T10:34:56.457Z,43.03
2019-06-01T10:37:28.443Z,42.79
2019-06-01T10:40:02.105Z,43.04
2019-06-01T10:42:35.994Z,42.21
2019-06-01T10:45:07.978Z,40.17
2019-06-01T10:47:43.312Z,40.95
2019-06-01T10:50:17.317Z,40.11
2019-06-01T10:52:49.593Z,38.73
2019-06-01T10:55:22.326Z,40.70
2019-06-01T10:57:55.913Z,41.06
2019-06-01T11:00:38.738Z,41.59
2019-06-01T11:03:01.542Z,39.83
2019-06-01T11:05:34.911Z,40.53
2019-06-01T11:08:06.743Z,40.26
2019-06-01T11:10:39.101Z,39.01
2019-06-01T11:13:11.300Z,40.18
2019-06-01T11:15:45.416Z,40.52
2019-06-01T11:18:17.245Z,40.62
2019-06-01T11:20:50.607Z,41.52
2019-06-01T11:23:22.404Z,41.65
2019-06-01T11:25:54.727Z,41.19
2019-06-01T11:28:27.660Z,39.20
2019-06-01T11:30:59.392Z,40.57
2019-06-01T11:33:31.544Z,40.00
2019-06-01T11:36:04.977Z,37.88
2019-06-01T11:38:38.337Z,37.36
2019-06-01T11:41:10.281Z,36.94
2019-06-01T11:43:45.886Z,37.17
2019-06-01T11:46:17.230Z,36.97
2019-06-01T11:48:50.025Z,36.22
2019-06-01T11:51:21.845Z,35.60
2019-06-01T11:53:53.648Z,34.88
2019-06-01T11:56:27.354Z,34.85
2019-06-01T11:58:59.159Z,35.50
2019-06-01T12:01:30.964Z,35.51
2019-06-01T12:04:04.396Z,35.34
2019-06-01T12:06:37.872Z,35.25
2019-06-01T12:09:11.140Z,35.63
2019-06-01T12:11:44.148Z,35.79
2019-06-01T12:14:16.059Z,35.25
2019-06-01T12:16:47.821Z,35.47
2019-06-01T12:19:19.630Z,35.88
2019-06-01T12:21:51.494Z,35.80
2019-06-01T12:24:25.704Z,35.61
2019-06-01T12:26:58.402Z,35.67
2019-06-01T12:29:31.937Z,35.59
2019-06-01T12:32:03.880Z,35.98
2019-06-01T12:34:35.633Z,35.68
2019-06-01T12:37:07.398Z,35.96
2019-06-01T12:39:40.389Z,35.57
2019-06-01T12:42:12.237Z,35.59
2019-06-01T12:44:45.789Z,35.42
2019-06-01T12:47:19.371Z,35.35
2019-06-01T12:49:52.605Z,35.31
2019-06-01T12:52:24.414Z,35.63
2019-06-01T12:55:00.344Z,35.95
2019-06-01T12:57:32.237Z,36.14
2019-06-01T13:00:03.987Z,36.04
2019-06-01T13:02:36.979Z,35.98
2019-06-01T13:05:08.712Z,35.40
2019-06-01T13:07:57.475Z,35.25
2019-06-01T13:10:19.308Z,35.66
2019-06-01T13:12:52.252Z,34.77
2019-06-01T13:15:25.252Z,34.86
2019-06-01T13:17:57.081Z,35.47
2019-06-01T13:20:30.753Z,35.05
2019-06-01T13:23:04.422Z,35.15
2019-06-01T13:25:41.451Z,35.21
2019-06-01T13:28:38.003Z,35.27
2019-06-01T13:31:07.546Z,34.91
2019-06-01T13:33:42.224Z,35.49
2019-06-01T13:36:16.021Z,35.48
2019-06-01T13:38:48.795Z,34.97
2019-06-01T13:41:20.641Z,34.94
2019-06-01T13:43:53.548Z,34.63
2019-06-01T13:46:25.367Z,35.13
2019-06-01T13:48:58.436Z,34.87
2019-06-01T13:51:30.685Z,34.53
2019-06-01T13:54:02.471Z,34.81
2019-06-01T13:56:36.182Z,34.41
2019-06-01T13:59:09.210Z,34.74
2019-06-01T14:01:41.090Z,35.05
2019-06-01T14:04:13.307Z,34.62
2019-06-01T14:06:45.216Z,34.75
2019-06-01T14:09:21.620Z,34.87
2019-06-01T14:11:51.711Z,34.76
2019-06-01T14:14:23.450Z,34.12
2019-06-01T14:16:57.104Z,34.75
2019-06-01T14:19:28.837Z,34.73
2019-06-01T14:22:00.620Z,34.78
2019-06-01T14:24:42.091Z,34.63
2019-06-01T14:27:10.037Z,34.30
2019-06-01T14:29:41.775Z,34.51
2019-06-01T14:32:17.668Z,34.36
2019-06-01T14:34:51.086Z,34.84
2019-06-01T14:37:24.695Z,34.51
2019-06-01T14:39:58.307Z,34.56
2019-06-01T14:42:30.294Z,34.84
2019-06-01T14:45:02.687Z,34.54
2019-06-01T14:47:40.298Z,34.44
2019-06-01T14:50:12.173Z,34.32
2019-06-01T14:52:45.642Z,34.66
2019-06-01T14:55:17.586Z,34.37
2019-06-01T14:57:56.109Z,34.37
2019-06-01T15:00:28.478Z,34.26
2019-06-01T15:03:04.643Z,34.16
2019-06-01T15:05:59.279Z,34.24
2019-06-01T15:08:36.784Z,34.53
2019-06-01T15:11:08.553Z,34.22
2019-06-01T15:13:40.285Z,34.24
2019-06-01T15:16:12.196Z,34.04
2019-06-01T15:18:43.963Z,34.09
2019-06-01T15:21:17.808Z,33.89
2019-06-01T15:23:49.820Z,33.73
2019-06-01T15:26:23.018Z,33.45
2019-06-01T15:28:54.809Z,33.80
2019-06-01T15:31:26.687Z,33.70
2019-06-01T15:33:59.433Z,33.80
2019-06-01T15:36:31.944Z,33.71
2019-06-01T15:39:04.588Z,33.70
2019-06-01T15:41:38.342Z,33.65
2019-06-01T15:44:11.882Z,33.87
2019-06-01T15:46:43.708Z,33.87
2019-06-01T15:49:15.900Z,34.03
2019-06-01T15:51:49.374Z,33.76
2019-06-01T15:54:21.249Z,33.75
2019-06-01T15:56:54.270Z,33.77
2019-06-01T15:59:26.808Z,33.52
2019-06-01T16:01:59.288Z,33.73
2019-06-01T16:04:34.796Z,33.72
2019-06-01T16:07:06.643Z,33.50
2019-06-01T16:09:43.141Z,33.27
2019-06-01T16:12:14.841Z,33.38
2019-06-01T16:14:48.266Z,33.00
2019-06-01T16:17:20.073Z,33.19
2019-06-01T16:19:51.895Z,33.20
2019-06-01T16:22:25.353Z,33.19
2019-06-01T16:24:58.150Z,32.98
2019-06-01T16:27:30.036Z,33.07
2019-06-01T16:30:06.464Z,32.99
2019-06-01T16:32:47.596Z,32.73
2019-06-01T16:35:34.762Z,32.71
2019-06-01T16:38:19.499Z,32.67
2019-06-01T16:41:03.427Z,32.71
2019-06-01T16:43:51.439Z,32.87
2019-06-01T16:46:48.908Z,32.86
2019-06-01T16:49:28.130Z,32.67
2019-06-01T16:52:12.291Z,32.47
2019-06-01T16:54:42.717Z,32.61
2019-06-01T16:57:20.550Z,32.54
2019-06-01T17:00:00.328Z,32.56
2019-06-01T17:02:43.243Z,32.47
2019-06-01T17:05:22.640Z,32.51
2019-06-01T17:07:59.194Z,32.42
2019-06-01T17:10:43.677Z,32.28
2019-06-01T17:13:24.990Z,32.11
2019-06-01T17:15:57.013Z,32.18
2019-06-01T17:18:32.451Z,32.10
2019-06-01T17:21:05.498Z,32.08
2019-06-01T17:23:37.305Z,32.11
2019-06-01T17:26:09.023Z,32.07
2019-06-01T17:28:40.745Z,32.14
2019-06-01T17:31:16.258Z,31.98
2019-06-01T17:33:49.795Z,32.00
2019-06-01T17:36:23.930Z,31.89
2019-06-01T17:38:55.763Z,31.84
2019-06-01T17:41:27.592Z,31.68
2019-06-01T17:44:00.473Z,31.64
2019-06-01T17:46:43.346Z,31.60
2019-06-01T17:49:08.513Z,31.59
2019-06-01T17:51:41.978Z,31.53
2019-06-01T17:54:15.366Z,31.57
2019-06-01T17:56:48.723Z,31.49
2019-06-01T17:59:20.432Z,31.38
2019-06-01T18:01:52.193Z,31.32
2019-06-01T18:04:24.019Z,31.14
2019-06-01T18:06:55.789Z,31.13
2019-06-01T18:09:29.614Z,31.01
2019-06-01T18:12:03.924Z,31.02
2019-06-01T18:14:35.859Z,31.03
2019-06-01T18:17:08.269Z,30.88
2019-06-01T18:19:41.871Z,30.87
2019-06-01T18:22:13.592Z,30.76
2019-06-01T18:24:45.355Z,30.80
2019-06-01T18:27:19.721Z,30.70
2019-06-01T18:29:51.424Z,30.59
2019-06-01T18:32:23.198Z,30.51
2019-06-01T18:35:00.052Z,30.17
2019-06-01T18:37:33.533Z,30.16
2019-06-01T18:40:07.783Z,30.11
2019-06-01T18:42:40.971Z,29.88
2019-06-01T18:45:13.645Z,29.96
2019-06-01T18:47:47.214Z,29.92
2019-06-01T18:50:18.947Z,29.78
2019-06-01T18:52:51.214Z,29.68
2019-06-01T18:55:27.437Z,29.58
2019-06-01T18:58:00.153Z,29.36
2019-06-01T19:00:33.546Z,29.35
2019-06-01T19:03:07.008Z,29.22
2019-06-01T19:05:39.214Z,29.12
2019-06-01T19:08:11.723Z,29.03
2019-06-01T19:10:43.994Z,28.85
2019-06-01T19:13:15.968Z,28.69
2019-06-01T19:15:49.529Z,28.51
2019-06-01T19:18:21.290Z,28.43
2019-06-01T19:20:53.072Z,28.33
2019-06-01T19:23:26.434Z,28.32
2019-06-01T19:26:00.914Z,28.12
2019-06-01T19:28:32.619Z,27.76
2019-06-01T19:31:04.505Z,27.54
2019-06-01T19:33:36.321Z,27.57
2019-06-01T19:36:08.918Z,27.50
2019-06-01T19:38:41.247Z,27.45
2019-06-01T19:41:15.473Z,27.36
2019-06-01T19:43:48.951Z,27.28
2019-06-01T19:46:20.691Z,27.13
2019-06-01T19:48:52.502Z,27.09
2019-06-01T19:51:24.755Z,26.92
2019-06-01T19:53:58.385Z,26.75
2019-06-01T19:56:32.542Z,26.63
2019-06-01T19:59:04.323Z,26.48
2019-06-01T20:01:37.671Z,26.39
2019-06-01T20:04:10.421Z,26.35
2019-06-01T20:06:44.875Z,26.25
2019-06-01T20:09:17.160Z,26.26
2019-06-01T20:12:01.313Z,26.16
2019-06-01T20:14:24.480Z,26.07
2019-06-01T20:16:56.263Z,25.97
2019-06-01T20:19:29.280Z,25.83
2019-06-01T20:22:02.762Z,25.53
2019-06-01T20:24:34.554Z,25.45
2019-06-01T20:27:07.958Z,25.37
2019-06-01T20:29:39.675Z,25.16
2019-06-01T20:32:13.639Z,25.04
2019-06-01T20:34:47.569Z,25.01
2019-06-01T20:37:20.165Z,24.95
2019-06-01T20:39:52.003Z,24.91
2019-06-01T20:42:32.136Z,24.82
2019-06-01T20:44:57.709Z,24.63
2019-06-01T20:47:31.773Z,24.48
2019-06-01T20:50:03.954Z,24.40
2019-06-01T20:52:35.746Z,24.16
2019-06-01T20:55:08.356Z,24.03
2019-06-01T20:57:40.219Z,24.00
2019-06-01T21:00:15.964Z,23.85
2019-06-01T21:02:47.948Z,23.80
2019-06-01T21:05:22.110Z,23.72
2019-06-01T21:07:56.983Z,23.74
2019-06-01T21:10:29.386Z,23.67
2019-06-01T21:13:01.467Z,23.62
2019-06-01T21:15:33.331Z,23.65
2019-06-01T21:18:05.043Z,23.55
2019-06-01T21:20:36.796Z,23.45
2019-06-01T21:23:08.502Z,23.24
2019-06-01T21:25:42.677Z,23.17
2019-06-01T21:28:16.388Z,23.05
2019-06-01T21:30:48.235Z,22.93
2019-06-01T21:33:24.953Z,22.78
2019-06-01T21:36:04.897Z,22.53
2019-06-01T21:38:38.362Z,22.47
2019-06-01T21:41:10.366Z,22.37
2019-06-01T21:43:42.113Z,22.26
2019-06-01T21:46:17.552Z,22.19
2019-06-01T21:48:49.599Z,22.23
2019-06-01T21:51:24.004Z,22.15
2019-06-01T21:54:07.506Z,21.99
2019-06-01T21:56:40.862Z,21.81
2019-06-01T21:59:18.461Z,21.79
2019-06-01T22:01:50.238Z,21.78
2019-06-01T22:04:25.329Z,21.47
2019-06-01T22:06:58.410Z,21.39
2019-06-01T22:09:30.129Z,21.37
2019-06-01T22:12:01.867Z,21.49
2019-06-01T22:14:38.051Z,21.21
2019-06-01T22:17:13.028Z,21.03
2019-06-01T22:19:44.825Z,21.01
2019-06-01T22:22:17.507Z,21.06
2019-06-01T22:24:49.384Z,21.02
2019-06-01T22:27:22.174Z,21.09
2019-06-01T22:29:54.176Z,21.11
2019-06-01T22:32:29.217Z,20.94
2019-06-01T22:35:01.183Z,20.68
2019-06-01T22:37:35.312Z,20.71
2019-06-01T22:40:07.722Z,20.56
2019-06-01T22:42:41.470Z,20.30
2019-06-01T22:45:16.973Z,20.18
2019-06-01T22:47:50.232Z,20.05
2019-06-01T22:50:22.859Z,19.65
2019-06-01T22:52:55.161Z,19.81
2019-06-01T22:55:28.891Z,19.77
2019-06-01T22:58:02.462Z,19.79
2019-06-01T23:00:36.544Z,19.72
2019-06-01T23:03:10.045Z,19.65
2019-06-01T23:05:44.720Z,19.56
2019-06-01T23:08:17.399Z,19.56
2019-06-01T23:10:53.247Z,19.46
2019-06-01T23:13:28.220Z,19.32
2019-06-01T23:16:00.179Z,19.26
2019-06-01T23:18:35.315Z,19.21
2019-06-01T23:21:07.912Z,19.23
2019-06-01T23:23:42.615Z,19.18
2019-06-01T23:26:15.724Z,19.21
2019-06-01T23:28:47.594Z,19.25
2019-06-01T23:31:19.977Z,19.47
2019-06-01T23:33:55.601Z,19.31
2019-06-01T23:36:28.849Z,19.41
2019-06-01T23:39:01.152Z,19.14
2019-06-01T23:41:36.228Z,19.14
2019-06-01T23:44:12.150Z,19.01
2019-06-01T23:46:44.460Z,19.08
2019-06-01T23:49:16.965Z,19.05
2019-06-01T23:51:48.906Z,18.97
2019-06-01T23:54:21.963Z,19.06
2019-06-01T23:56:54.092Z,19.14
2019-06-01T23:59:30.797Z,19.00
